createdAt,value
2019-03-17T00:01:38.317Z,76571.05
2019-03-17T00:04:08.123Z,76569.03
2019-03-17T00:06:38.332Z,76562.97
2019-03-17T00:09:08.237Z,76574.08
2019-03-17T00:11:37.429Z,76556.91
2019-03-17T00:14:06.840Z,76551.86
2019-03-17T00:16:36.404Z,76558.92
2019-03-17T00:19:05.872Z,76559.94
2019-03-17T00:21:35.066Z,76558.92
2019-03-17T00:24:04.230Z,76561.96
2019-03-17T00:26:33.804Z,76559.94
2019-03-17T00:29:02.926Z,76554.89
2019-03-17T00:31:32.596Z,76564.98
2019-03-17T00:34:02.398Z,76562.97
2019-03-17T00:36:31.994Z,76559.94
2019-03-17T00:39:01.202Z,76551.86
2019-03-17T00:41:31.700Z,76552.87
2019-03-17T00:44:01.466Z,76550.84
2019-03-17T00:46:30.650Z,76551.86
2019-03-17T00:49:01.499Z,76543.78
2019-03-17T00:51:30.645Z,76546.81
2019-03-17T00:54:01.116Z,76540.75
2019-03-17T00:56:31.043Z,76533.67
2019-03-17T00:59:00.535Z,76528.63
2019-03-17T01:01:30.046Z,76530.65
2019-03-17T01:04:00.089Z,76526.61
2019-03-17T01:06:29.694Z,76503.38
2019-03-17T01:08:58.834Z,76511.45
2019-03-17T01:11:28.503Z,76500.34
2019-03-17T01:13:57.627Z,76496.31
2019-03-17T01:16:26.822Z,76495.30
2019-03-17T01:18:56.073Z,76484.19
2019-03-17T01:21:25.263Z,76488.23
2019-03-17T01:23:54.874Z,76489.23
2019-03-17T01:26:24.047Z,76482.17
2019-03-17T01:28:53.499Z,76484.19
2019-03-17T01:31:24.067Z,76479.14
2019-03-17T01:33:54.690Z,76469.04
2019-03-17T01:36:24.250Z,76458.94
2019-03-17T01:38:54.268Z,76458.94
2019-03-17T01:41:23.432Z,76457.92
2019-03-17T01:43:52.977Z,76454.90
2019-03-17T01:46:22.486Z,76445.81
2019-03-17T01:48:52.192Z,76446.81
2019-03-17T01:51:22.146Z,76448.84
2019-03-17T01:53:51.269Z,76452.88
2019-03-17T01:56:21.352Z,76443.79
2019-03-17T01:58:50.607Z,76452.88
2019-03-17T02:01:19.767Z,76437.73
2019-03-17T02:03:49.647Z,76446.81
2019-03-17T02:06:19.156Z,76440.76
2019-03-17T02:08:48.297Z,76445.81
2019-03-17T02:11:17.611Z,76443.79
2019-03-17T02:13:46.736Z,76449.84
2019-03-17T02:16:16.279Z,76441.77
2019-03-17T02:18:45.450Z,76445.81
2019-03-17T02:21:14.638Z,76457.92
2019-03-17T02:23:44.458Z,76450.86
2019-03-17T02:26:13.879Z,76455.91
2019-03-17T02:28:43.566Z,76460.95
2019-03-17T02:31:12.742Z,76457.92
2019-03-17T02:33:42.254Z,76465.00
2019-03-17T02:36:11.476Z,76461.97
2019-03-17T02:38:40.667Z,76483.17
2019-03-17T02:41:10.188Z,76489.23
2019-03-17T02:43:39.746Z,76502.37
2019-03-17T02:46:09.304Z,76510.45
2019-03-17T02:48:38.841Z,76498.33
2019-03-17T02:51:08.688Z,76500.34
2019-03-17T02:53:37.892Z,76499.34
2019-03-17T02:56:07.066Z,76486.20
2019-03-17T02:58:36.614Z,76486.20
2019-03-17T03:01:06.133Z,76486.20
2019-03-17T03:03:35.509Z,76468.03
2019-03-17T03:06:04.949Z,76467.02
2019-03-17T03:08:34.468Z,76448.84
2019-03-17T03:11:03.681Z,76453.89
2019-03-17T03:13:33.201Z,76469.04
2019-03-17T03:16:05.424Z,76465.00
2019-03-17T03:18:33.412Z,76461.97
2019-03-17T03:21:02.840Z,76467.02
2019-03-17T03:23:31.993Z,76470.05
2019-03-17T03:26:01.158Z,76461.97
2019-03-17T03:28:30.688Z,76467.02
2019-03-17T03:30:59.897Z,76455.91
2019-03-17T03:33:29.430Z,76466.01
2019-03-17T03:36:10.730Z,76479.14
2019-03-17T03:38:30.746Z,76508.42
2019-03-17T03:40:59.989Z,76525.59
2019-03-17T03:43:30.244Z,76540.75
2019-03-17T03:46:00.416Z,76543.78
2019-03-17T03:48:29.937Z,76549.84
2019-03-17T03:50:59.050Z,76541.76
2019-03-17T03:53:29.983Z,76548.83
2019-03-17T03:55:59.174Z,76556.91
2019-03-17T03:58:28.705Z,76561.96
2019-03-17T04:00:58.146Z,76561.96
2019-03-17T04:03:27.618Z,76569.03
2019-03-17T04:05:56.756Z,76579.13
2019-03-17T04:08:26.005Z,76571.05
2019-03-17T04:10:55.503Z,76583.17
2019-03-17T04:13:24.677Z,76596.30
2019-03-17T04:15:53.839Z,76598.32
2019-03-17T04:18:22.995Z,76603.38
2019-03-17T04:20:52.143Z,76609.43
2019-03-17T04:23:21.391Z,76618.52
2019-03-17T04:25:50.987Z,76628.63
2019-03-17T04:28:20.421Z,76623.57
2019-03-17T04:30:49.598Z,76623.57
2019-03-17T04:33:18.990Z,76622.56
2019-03-17T04:35:48.128Z,76629.63
2019-03-17T04:38:18.830Z,76635.69
2019-03-17T04:40:48.628Z,76641.75
2019-03-17T04:43:18.008Z,76633.67
2019-03-17T04:45:47.180Z,76639.73
2019-03-17T04:48:16.362Z,76648.82
2019-03-17T04:50:45.850Z,76640.74
2019-03-17T04:53:15.362Z,76633.67
2019-03-17T04:55:45.192Z,76643.77
2019-03-17T04:58:14.369Z,76654.88
2019-03-17T05:00:43.564Z,76658.92
2019-03-17T05:03:13.069Z,76659.94
2019-03-17T05:05:43.906Z,76668.02
2019-03-17T05:08:13.112Z,76675.08
2019-03-17T05:10:42.265Z,76675.08
2019-03-17T05:13:12.152Z,76681.14
2019-03-17T05:15:41.433Z,76697.30
2019-03-17T05:18:10.631Z,76740.73
2019-03-17T05:20:40.131Z,76835.69
2019-03-17T05:23:09.634Z,76920.53
2019-03-17T05:25:38.822Z,76950.84
2019-03-17T05:28:08.031Z,76986.19
2019-03-17T05:30:38.970Z,77008.41
2019-03-17T05:33:08.140Z,77019.52
2019-03-17T05:35:37.682Z,77047.81
2019-03-17T05:38:06.845Z,77051.85
2019-03-17T05:40:36.244Z,77061.95
2019-03-17T05:43:05.430Z,77074.08
2019-03-17T05:45:35.386Z,77074.08
2019-03-17T05:48:06.341Z,77082.16
2019-03-17T05:50:35.823Z,77085.19
2019-03-17T05:53:05.027Z,77093.27
2019-03-17T05:55:34.196Z,77098.31
2019-03-17T05:58:03.336Z,77107.41
2019-03-17T06:00:32.532Z,77118.52
2019-03-17T06:03:01.673Z,77129.63
2019-03-17T06:05:31.343Z,77146.80
2019-03-17T06:08:00.881Z,77149.84
2019-03-17T06:10:30.042Z,77146.80
2019-03-17T06:12:59.208Z,77136.70
2019-03-17T06:15:28.376Z,77151.86
2019-03-17T06:17:57.580Z,77148.83
2019-03-17T06:20:26.750Z,77152.87
2019-03-17T06:22:55.913Z,77149.84
2019-03-17T06:25:25.351Z,77139.73
2019-03-17T06:27:54.641Z,77146.80
2019-03-17T06:30:23.769Z,77148.83
2019-03-17T06:32:53.363Z,77147.81
2019-03-17T06:35:22.867Z,77149.84
2019-03-17T06:37:52.438Z,77164.98
2019-03-17T06:40:21.873Z,77168.02
2019-03-17T06:42:51.000Z,77164.98
2019-03-17T06:45:20.676Z,77160.95
2019-03-17T06:47:49.816Z,77169.03
2019-03-17T06:50:19.008Z,77177.11
2019-03-17T06:52:48.603Z,77170.04
2019-03-17T06:55:17.735Z,77174.08
2019-03-17T06:57:46.943Z,77169.03
2019-03-17T07:00:16.185Z,77164.98
2019-03-17T07:02:45.353Z,77157.92
2019-03-17T07:05:14.969Z,77155.90
2019-03-17T07:07:44.836Z,77157.92
2019-03-17T07:10:15.862Z,77153.88
2019-03-17T07:12:45.445Z,77138.72
2019-03-17T07:15:14.818Z,77139.73
2019-03-17T07:17:43.954Z,77145.80
2019-03-17T07:20:13.463Z,77136.70
2019-03-17T07:22:42.622Z,77140.74
2019-03-17T07:25:12.134Z,77157.92
2019-03-17T07:27:41.695Z,77163.98
2019-03-17T07:30:12.512Z,77164.98
2019-03-17T07:32:42.080Z,77183.17
2019-03-17T07:35:11.274Z,77164.98
2019-03-17T07:37:40.441Z,77179.13
2019-03-17T07:40:10.883Z,77200.34
2019-03-17T07:42:40.071Z,77225.59
2019-03-17T07:45:09.541Z,77244.80
2019-03-17T07:47:38.752Z,77231.66
2019-03-17T07:50:09.808Z,77217.52
2019-03-17T07:52:39.296Z,77218.53
2019-03-17T07:55:09.045Z,77216.51
2019-03-17T07:57:38.276Z,77237.72
2019-03-17T08:00:07.910Z,77236.71
2019-03-17T08:02:37.126Z,77235.70
2019-03-17T08:05:07.049Z,77238.73
2019-03-17T08:07:36.386Z,77230.66
2019-03-17T08:10:06.988Z,77231.66
2019-03-17T08:12:36.522Z,77233.69
2019-03-17T08:15:06.149Z,77241.77
2019-03-17T08:17:35.639Z,77239.74
2019-03-17T08:20:05.295Z,77244.80
2019-03-17T08:22:34.802Z,77247.83
2019-03-17T08:25:04.049Z,77243.78
2019-03-17T08:27:33.632Z,77233.69
2019-03-17T08:30:03.216Z,77216.51
2019-03-17T08:32:32.723Z,77203.38
2019-03-17T08:35:01.949Z,77209.44
2019-03-17T08:37:31.236Z,77191.25
2019-03-17T08:40:00.591Z,77183.17
2019-03-17T08:42:30.135Z,77162.97
2019-03-17T08:44:59.668Z,77160.95
2019-03-17T08:47:29.166Z,77144.78
2019-03-17T08:49:58.303Z,77146.80
2019-03-17T08:52:27.462Z,77146.80
2019-03-17T08:54:58.713Z,77110.44
2019-03-17T08:57:27.922Z,77076.09
2019-03-17T08:59:57.781Z,77013.47
2019-03-17T09:02:27.594Z,76951.84
2019-03-17T09:04:57.116Z,76932.66
2019-03-17T09:07:27.811Z,76934.67
2019-03-17T09:09:57.516Z,76959.92
2019-03-17T09:12:27.086Z,76989.22
2019-03-17T09:14:59.269Z,77004.38
2019-03-17T09:17:28.490Z,77049.83
2019-03-17T09:19:57.935Z,77092.26
2019-03-17T09:22:28.252Z,77232.67
2019-03-17T09:24:57.851Z,77275.09
2019-03-17T09:27:27.137Z,77303.39
2019-03-17T09:29:56.613Z,77290.25
2019-03-17T09:32:25.766Z,77301.37
2019-03-17T09:34:55.291Z,77308.44
2019-03-17T09:37:24.467Z,77321.57
2019-03-17T09:39:53.991Z,77300.36
2019-03-17T09:42:23.505Z,77295.30
2019-03-17T09:44:53.101Z,77274.09
2019-03-17T09:47:22.329Z,77285.20
2019-03-17T09:49:51.512Z,77271.06
2019-03-17T09:52:20.922Z,77250.86
2019-03-17T09:54:50.833Z,77232.67
2019-03-17T09:57:20.499Z,77188.22
2019-03-17T09:59:49.949Z,77176.10
2019-03-17T10:02:19.454Z,77140.74
2019-03-17T10:04:49.004Z,77146.80
2019-03-17T10:07:18.142Z,77157.92
2019-03-17T10:09:47.703Z,77184.19
2019-03-17T10:12:16.887Z,77168.02
2019-03-17T10:14:46.644Z,77209.44
2019-03-17T10:17:16.533Z,77194.28
2019-03-17T10:19:45.676Z,77206.41
2019-03-17T10:22:15.981Z,77191.25
2019-03-17T10:24:45.268Z,77183.17
2019-03-17T10:27:15.745Z,77111.45
2019-03-17T10:29:45.256Z,77113.47
2019-03-17T10:32:14.750Z,77096.30
2019-03-17T10:34:44.301Z,77110.44
2019-03-17T10:37:13.709Z,77109.43
2019-03-17T10:39:42.843Z,77075.09
2019-03-17T10:42:12.264Z,77087.20
2019-03-17T10:44:41.804Z,77102.36
2019-03-17T10:47:10.974Z,77078.11
2019-03-17T10:49:41.596Z,77061.95
2019-03-17T10:52:10.706Z,77087.20
2019-03-17T10:54:39.845Z,77123.57
2019-03-17T10:57:09.007Z,77096.30
2019-03-17T10:59:38.539Z,77054.88
2019-03-17T11:02:08.448Z,77068.02
2019-03-17T11:04:37.693Z,77074.08
2019-03-17T11:07:07.250Z,77043.77
2019-03-17T11:09:36.923Z,77009.42
2019-03-17T11:12:06.588Z,76960.94
2019-03-17T11:14:36.272Z,76962.96
2019-03-17T11:17:05.502Z,76928.61
2019-03-17T11:19:34.648Z,76985.19
2019-03-17T11:22:03.831Z,77125.59
2019-03-17T11:24:33.397Z,77377.13
2019-03-17T11:27:03.284Z,77491.29
2019-03-17T11:29:32.421Z,77533.72
2019-03-17T11:32:01.592Z,77552.91
2019-03-17T11:34:31.113Z,77534.73
2019-03-17T11:37:00.441Z,77543.83
2019-03-17T11:39:37.818Z,77566.05
2019-03-17T11:42:00.501Z,77568.07
2019-03-17T11:44:30.038Z,77553.92
2019-03-17T11:46:59.327Z,77543.83
2019-03-17T11:49:29.160Z,77517.55
2019-03-17T11:51:58.403Z,77478.16
2019-03-17T11:54:28.295Z,77456.94
2019-03-17T11:56:57.590Z,77466.03
2019-03-17T11:59:27.068Z,77473.11
2019-03-17T12:01:56.215Z,77421.58
2019-03-17T12:04:25.885Z,77412.49
2019-03-17T12:06:55.034Z,77428.66
2019-03-17T12:09:29.246Z,77394.30
2019-03-17T12:11:56.273Z,77367.03
2019-03-17T12:14:25.795Z,77364.00
2019-03-17T12:16:55.360Z,77356.92
2019-03-17T12:19:24.523Z,77334.70
2019-03-17T12:21:53.754Z,77300.36
2019-03-17T12:24:23.254Z,77260.95
2019-03-17T12:26:52.373Z,77181.16
2019-03-17T12:29:23.119Z,77107.41
2019-03-17T12:31:52.541Z,77190.24
2019-03-17T12:34:28.105Z,77279.14
2019-03-17T12:36:52.955Z,77257.92
2019-03-17T12:39:22.095Z,77201.36
2019-03-17T12:41:51.269Z,77229.64
2019-03-17T12:44:20.508Z,77227.63
2019-03-17T12:46:49.654Z,77231.66
2019-03-17T12:49:19.004Z,77169.03
2019-03-17T12:51:48.573Z,77187.21
2019-03-17T12:54:17.720Z,77188.22
2019-03-17T12:56:46.902Z,77132.66
2019-03-17T12:59:16.217Z,77140.74
2019-03-17T13:01:45.787Z,77116.50
2019-03-17T13:04:15.269Z,77085.19
2019-03-17T13:06:44.967Z,77125.59
2019-03-17T13:09:14.702Z,77154.89
2019-03-17T13:11:44.072Z,77263.98
2019-03-17T13:14:13.869Z,77328.64
2019-03-17T13:16:43.410Z,77370.06
2019-03-17T13:19:13.147Z,77368.04
2019-03-17T13:21:42.448Z,77367.03
2019-03-17T13:24:11.562Z,77351.88
2019-03-17T13:26:41.410Z,77265.00
2019-03-17T13:29:12.036Z,77262.98
2019-03-17T13:31:41.574Z,77259.95
2019-03-17T13:34:11.348Z,77239.74
2019-03-17T13:36:41.005Z,77190.24
2019-03-17T13:39:10.497Z,77155.90
2019-03-17T13:41:39.813Z,77147.81
2019-03-17T13:44:09.229Z,77181.16
2019-03-17T13:46:38.387Z,77201.36
2019-03-17T13:49:07.911Z,77177.11
2019-03-17T13:51:37.118Z,77180.14
2019-03-17T13:54:06.261Z,77210.45
2019-03-17T13:56:35.812Z,77214.48
2019-03-17T13:59:06.466Z,77249.84
2019-03-17T14:01:35.951Z,77249.84
2019-03-17T14:04:05.129Z,77210.45
2019-03-17T14:06:34.282Z,77176.10
2019-03-17T14:09:03.867Z,77166.00
2019-03-17T14:11:33.046Z,77182.16
2019-03-17T14:14:02.213Z,77221.56
2019-03-17T14:16:31.661Z,77254.89
2019-03-17T14:19:02.568Z,77271.06
2019-03-17T14:21:31.961Z,77232.67
2019-03-17T14:24:01.152Z,77168.02
2019-03-17T14:26:30.320Z,77127.61
2019-03-17T14:28:59.837Z,77102.36
2019-03-17T14:31:29.536Z,77137.72
2019-03-17T14:33:59.062Z,77125.59
2019-03-17T14:36:29.353Z,77157.92
2019-03-17T14:38:58.897Z,77152.87
2019-03-17T14:41:28.501Z,77161.95
2019-03-17T14:43:58.001Z,77201.36
2019-03-17T14:46:27.478Z,77182.16
2019-03-17T14:48:56.680Z,77245.80
2019-03-17T14:51:25.843Z,77330.66
2019-03-17T14:53:55.403Z,77312.48
2019-03-17T14:56:24.713Z,77345.81
2019-03-17T14:58:53.916Z,77374.10
2019-03-17T15:01:23.490Z,77349.86
2019-03-17T15:03:52.636Z,77324.60
2019-03-17T15:06:21.771Z,77284.19
2019-03-17T15:08:51.064Z,77263.98
2019-03-17T15:11:20.254Z,77263.98
2019-03-17T15:13:50.129Z,77219.54
2019-03-17T15:16:19.711Z,77233.69
2019-03-17T15:18:48.887Z,77278.13
2019-03-17T15:21:18.402Z,77288.23
2019-03-17T15:23:47.683Z,77302.38
2019-03-17T15:26:16.822Z,77292.27
2019-03-17T15:28:46.001Z,77255.91
2019-03-17T15:31:15.542Z,77255.91
2019-03-17T15:33:45.058Z,77258.94
2019-03-17T15:36:14.229Z,77250.86
2019-03-17T15:38:43.443Z,77292.27
2019-03-17T15:41:18.556Z,77314.50
2019-03-17T15:43:43.867Z,77314.50
2019-03-17T15:46:13.320Z,77339.75
2019-03-17T15:48:42.805Z,77352.89
2019-03-17T15:51:20.402Z,77327.63
2019-03-17T15:53:42.852Z,77335.71
2019-03-17T15:56:11.995Z,77335.71
2019-03-17T15:58:41.524Z,77338.75
2019-03-17T16:01:10.724Z,77347.84
2019-03-17T16:03:40.263Z,77369.05
2019-03-17T16:06:09.447Z,77396.33
2019-03-17T16:08:39.149Z,77434.72
2019-03-17T16:11:08.328Z,77430.67
2019-03-17T16:13:39.281Z,77427.64
2019-03-17T16:16:08.867Z,77431.69
2019-03-17T16:18:38.031Z,77436.73
2019-03-17T16:21:09.009Z,77438.76
2019-03-17T16:23:38.943Z,77444.81
2019-03-17T16:26:08.156Z,77450.88
2019-03-17T16:28:37.645Z,77441.78
2019-03-17T16:31:07.474Z,77437.75
2019-03-17T16:33:37.390Z,77428.66
2019-03-17T16:36:06.518Z,77437.75
2019-03-17T16:38:35.728Z,77467.05
2019-03-17T16:41:04.913Z,77504.42
2019-03-17T16:43:34.110Z,77536.75
2019-03-17T16:46:03.349Z,77556.95
2019-03-17T16:48:32.551Z,77562.01
2019-03-17T16:51:01.687Z,77557.97
2019-03-17T16:53:30.890Z,77553.92
2019-03-17T16:56:00.047Z,77540.80
2019-03-17T16:58:29.483Z,77534.73
2019-03-17T17:00:59.358Z,77568.07
2019-03-17T17:03:28.865Z,77587.27
2019-03-17T17:05:58.048Z,77617.58
2019-03-17T17:08:27.519Z,77635.76
2019-03-17T17:11:00.492Z,77654.95
2019-03-17T17:13:29.760Z,77665.06
2019-03-17T17:15:59.042Z,77684.25
2019-03-17T17:18:28.615Z,77683.24
2019-03-17T17:20:58.278Z,77701.43
2019-03-17T17:23:27.471Z,77703.45
2019-03-17T17:25:56.708Z,77718.61
2019-03-17T17:28:26.185Z,77739.82
2019-03-17T17:30:55.358Z,77744.88
2019-03-17T17:33:24.584Z,77751.95
2019-03-17T17:35:53.910Z,77750.94
2019-03-17T17:38:26.832Z,77760.03
2019-03-17T17:40:56.417Z,77780.23
2019-03-17T17:43:25.932Z,77784.27
2019-03-17T17:45:55.078Z,77786.30
2019-03-17T17:48:24.619Z,77794.38
2019-03-17T17:50:53.803Z,77783.27
2019-03-17T17:53:22.975Z,77779.22
2019-03-17T17:55:52.515Z,77772.16
2019-03-17T17:58:22.088Z,77779.22
2019-03-17T18:00:51.846Z,77813.58
2019-03-17T18:03:21.110Z,77823.68
2019-03-17T18:05:50.775Z,77825.70
2019-03-17T18:08:22.514Z,77837.83
2019-03-17T18:10:51.692Z,77855.00
2019-03-17T18:13:21.146Z,77852.98
2019-03-17T18:15:50.590Z,77877.23
2019-03-17T18:18:20.156Z,77872.17
2019-03-17T18:20:49.299Z,77891.38
2019-03-17T18:23:18.691Z,77887.33
2019-03-17T18:25:48.274Z,77908.55
2019-03-17T18:28:17.917Z,77910.57
2019-03-17T18:30:47.123Z,77931.79
2019-03-17T18:33:16.533Z,77912.59
2019-03-17T18:35:45.985Z,77935.83
2019-03-17T18:38:15.440Z,77933.81
2019-03-17T18:40:44.694Z,77936.84
2019-03-17T18:43:13.829Z,77962.09
2019-03-17T18:45:43.316Z,77966.14
2019-03-17T18:48:13.002Z,77957.05
2019-03-17T18:50:42.296Z,77956.04
2019-03-17T18:53:12.188Z,77980.28
2019-03-17T18:55:41.345Z,77999.48
2019-03-17T18:58:10.885Z,77996.45
2019-03-17T19:00:40.302Z,78023.73
2019-03-17T19:03:11.540Z,78037.88
2019-03-17T19:05:40.701Z,78050.00
2019-03-17T19:08:09.900Z,78059.09
2019-03-17T19:10:39.041Z,78043.94
2019-03-17T19:13:08.249Z,78059.09
2019-03-17T19:15:37.876Z,78065.16
2019-03-17T19:18:07.020Z,78059.09
2019-03-17T19:20:36.245Z,78069.20
2019-03-17T19:23:05.782Z,78082.34
2019-03-17T19:25:35.230Z,78090.42
2019-03-17T19:28:04.814Z,78101.53
2019-03-17T19:30:34.075Z,78090.42
2019-03-17T19:33:03.250Z,78091.43
2019-03-17T19:35:33.019Z,78095.47
2019-03-17T19:38:02.931Z,78105.58
2019-03-17T19:40:32.366Z,78114.67
2019-03-17T19:43:01.584Z,78093.45
2019-03-17T19:45:31.962Z,78086.38
2019-03-17T19:48:01.510Z,78093.45
2019-03-17T19:50:30.693Z,78097.49
2019-03-17T19:52:59.940Z,78090.42
2019-03-17T19:55:29.134Z,78097.49
2019-03-17T19:57:59.775Z,78094.46
2019-03-17T20:00:29.309Z,78104.56
2019-03-17T20:02:58.504Z,78099.52
2019-03-17T20:05:28.000Z,78114.67
2019-03-17T20:07:57.367Z,78101.53
2019-03-17T20:10:26.645Z,78102.55
2019-03-17T20:12:56.278Z,78120.73
2019-03-17T20:15:27.475Z,78107.59
2019-03-17T20:17:56.948Z,78087.39
2019-03-17T20:20:26.151Z,78064.15
2019-03-17T20:22:55.637Z,78071.22
2019-03-17T20:25:24.818Z,78085.37
2019-03-17T20:27:53.980Z,78100.52
2019-03-17T20:30:24.155Z,78100.52
2019-03-17T20:32:53.543Z,78106.59
2019-03-17T20:35:22.772Z,78106.59
2019-03-17T20:37:52.373Z,78125.78
2019-03-17T20:40:21.639Z,78118.71
2019-03-17T20:42:52.299Z,78118.71
2019-03-17T20:45:21.483Z,78092.44
2019-03-17T20:47:51.048Z,78115.68
2019-03-17T20:50:20.222Z,78119.72
2019-03-17T20:52:49.741Z,78118.71
2019-03-17T20:55:18.924Z,78123.77
2019-03-17T20:57:48.383Z,78103.55
2019-03-17T21:00:17.721Z,78105.58
2019-03-17T21:02:47.859Z,78119.72
2019-03-17T21:05:17.491Z,78135.89
2019-03-17T21:07:46.668Z,78150.03
2019-03-17T21:10:16.467Z,78139.93
2019-03-17T21:12:45.658Z,78139.93
2019-03-17T21:15:15.183Z,78142.96
2019-03-17T21:17:44.358Z,78150.03
2019-03-17T21:20:14.463Z,78165.19
2019-03-17T21:22:43.623Z,78154.08
2019-03-17T21:25:13.138Z,78144.98
2019-03-17T21:27:42.610Z,78153.06
2019-03-17T21:30:17.176Z,78152.05
2019-03-17T21:32:46.567Z,78166.20
2019-03-17T21:35:16.150Z,78177.31
2019-03-17T21:37:45.434Z,78172.27
2019-03-17T21:40:14.649Z,78171.25
2019-03-17T21:42:43.757Z,78183.38
2019-03-17T21:45:12.940Z,78185.40
2019-03-17T21:47:42.233Z,78190.45
2019-03-17T21:50:13.256Z,78191.46
2019-03-17T21:52:42.391Z,78193.48
2019-03-17T21:55:11.800Z,78185.40
2019-03-17T21:57:41.295Z,78191.46
2019-03-17T22:00:12.985Z,78194.49
2019-03-17T22:02:42.172Z,78197.52
2019-03-17T22:05:12.430Z,78200.55
2019-03-17T22:07:49.640Z,78199.55
2019-03-17T22:10:13.346Z,78209.65
2019-03-17T22:12:42.860Z,78216.72
2019-03-17T22:15:12.157Z,78208.64
2019-03-17T22:17:41.363Z,78198.53
2019-03-17T22:20:10.951Z,78220.77
2019-03-17T22:22:40.199Z,78213.69
2019-03-17T22:25:09.536Z,78218.74
2019-03-17T22:27:39.302Z,78202.58
2019-03-17T22:30:10.227Z,78204.59
2019-03-17T22:32:39.419Z,78217.73
2019-03-17T22:35:09.902Z,78211.67
2019-03-17T22:37:39.149Z,78232.89
2019-03-17T22:40:10.490Z,78241.98
2019-03-17T22:42:39.644Z,78240.97
2019-03-17T22:45:09.880Z,78252.09
2019-03-17T22:47:39.160Z,78249.06
2019-03-17T22:50:08.998Z,78257.14
2019-03-17T22:52:38.180Z,78252.09
2019-03-17T22:55:07.724Z,78256.13
2019-03-17T22:57:37.243Z,78240.97
2019-03-17T23:00:09.177Z,78235.92
2019-03-17T23:02:38.598Z,78238.95
2019-03-17T23:05:08.711Z,78236.93
2019-03-17T23:07:37.873Z,78223.80
2019-03-17T23:10:08.349Z,78213.69
2019-03-17T23:12:37.880Z,78221.77
2019-03-17T23:15:07.210Z,78219.75
2019-03-17T23:17:36.662Z,78209.65
2019-03-17T23:20:06.403Z,78207.63
2019-03-17T23:22:35.920Z,78206.62
2019-03-17T23:25:05.959Z,78211.67
2019-03-17T23:27:35.080Z,78213.69
2019-03-17T23:30:04.446Z,78211.67
2019-03-17T23:32:33.656Z,78216.72
2019-03-17T23:35:02.842Z,78205.61
2019-03-17T23:37:31.988Z,78201.56
2019-03-17T23:40:01.545Z,78198.53
2019-03-17T23:42:31.053Z,78206.62
2019-03-17T23:45:00.294Z,78199.55
2019-03-17T23:47:29.833Z,78193.48
2019-03-17T23:49:59.281Z,78192.47
2019-03-17T23:52:28.461Z,78205.61
2019-03-17T23:54:57.967Z,78207.63
2019-03-17T23:57:27.398Z,78196.52
2019-03-17T23:59:56.608Z,78200.55
